CheckWX is a tool to help pilots better visualize weather data.  It is not intended as a substitute for an official pre-flight weather briefing.

02:31:14 UTC

AGGM METAR
Munda Airport
Solomon Islands
Current

31 mins ago

AGGM 180200Z 23008KT 9999 HZ FEW018 SCT100 BKN300 30/25 Q1006
Observed
Feb-18 @ 02:00 UTC
Wind
  • 230° at 8 KTS
Visibility
10,000+ meters
Flight Rules
VFR
Conditions
Haze
Cloud Levels
  • Few at 1,800' AGL
  • Scattered at 10,000' AGL
  • Broken at 30,000' AGL
Temperature
30°C / 86°F
Dewpoint
25°C / 77°F
Humidity
75%
Altimeter
29.7" Hg
Pressure
1005.92 hPa
Previous

2 hours ago

AGGM 180100Z 23012KT 9999 HZ FEW018 SCT100 BKN300 30/24 Q1007
Observed
Feb-18 @ 01:00 UTC
Wind
  • 230° at 12 KTS
Visibility
10,000+ meters
Flight Rules
VFR
Conditions
Haze
Cloud Levels
  • Few at 1,800' AGL
  • Scattered at 10,000' AGL
  • Broken at 30,000' AGL
Temperature
30°C / 86°F
Dewpoint
24°C / 75°F
Humidity
70%
Altimeter
29.73" Hg
Pressure
1006.92 hPa
Previous

3 hours ago

AGGM 180000Z 23012KT 9999 HZ FEW018 BKN300 30/24 Q1007
Observed
Feb-18 @ 00:00 UTC
Wind
  • 230° at 12 KTS
Visibility
10,000+ meters
Flight Rules
VFR
Conditions
Haze
Cloud Levels
  • Few at 1,800' AGL
  • Broken at 30,000' AGL
Temperature
30°C / 86°F
Dewpoint
24°C / 75°F
Humidity
70%
Altimeter
29.73" Hg
Pressure
1006.92 hPa